Detall de PIREP

Printer-friendly versionPDF version

[2012/08/06 18:07:00]
Flight IATA:CT3127
Pilot Number:026
Company ICAO:CAT
Aircraft Type:DC85/A
PAX:0
Aircraft Registration:CARGO
Departing Airport: LEZG
Destination Airport: LFMP
Alternate Airport:LEGE
Online: VATSIM
Route:GRAUS G23 REBUL H110 BGR A27 KANIG
Flight Level:F200
No Slew and time accel
No pause
Crash detect
Detect pilot in Cockpit between each 30 and 45 minutes
18:07 Zero fuel Weight: 187231 Lbs, Fuel Weight: 24016 Lbs
18:07 VATSIM:LEZG 061730Z 32007KT 290V010 9999 FEW040 28/08 Q1018
18:07 VATSIM:LFMP 061730Z AUTO 33009KT 290V010 9999 SCT072 26/11 Q1019
18:07 VOICE CATALONIAN / IATA CT3127 INTERHUB ROUTE
18:12 Parking Brakes off
18:17 Take-off
18:17 Take off Weight: 210330 Lbs
18:17 Wind: 324º @ 007 Knots Heading: 302º
18:17 POS N41º 39´ 53´´ W001º 01´ 49´´
18:17 Gear Up: 151 Knots
18:17 Flaps:2 at 151 Knots
18:19 Flaps:1 at 182 Knots
18:19 Flaps:0at 189 Knots
18:26 TOC
18:26 Fuel Weight: 20106 Lb
18:32 Wind:333º@014 Knots Heading: 082º Ground Speed: 433 Knots Altitude 20180 ft
18:47 Wind:099º@022 Knots Heading: 079º Ground Speed: 412 Knots Altitude 20167 ft
18:50 TOD
18:50 Fuel Weight: 14924 Lb
19:02 Wind:350º@009 Knots Heading: 340º Ground Speed: 245 Knots Altitude 6066 ft
19:04 Gear Down: 237 Knots
19:05 Flaps:1 at 220 Knots
19:05 Flaps:2 at 178 Knots
19:05 Flaps:3 at 169 Knots
19:06 Flaps:4 at 159 Knots
19:07 TouchDown:Rate -236 ft/min Speed: 137 Knots
19:07 VATSIM:LFMP 061830Z AUTO 34005KT 310V030 9999 OVC076 25/12 Q1020
19:07 Land
19:07 Wind:329º@005 Knots
19:07 Heading: 329º
19:07 Flight Duration: 00:50
19:07 Landing Weight: 200888 Lbs
19:07 POS N42º 44´ 59´´ E002º 51´ 54´´
19:12 Parking brakes on
19:12 Block to Block Duration: 01:00
19:12 Final Fuel: 13242 Lbls
19:12 Spent Fuel: 10773Lbls
19:12 Flight Length: 187 NM
19:12 TOD Land Length: 65 NM

Exportar CSV

Powered by Drupal - Modified by Danger4k